createdAt,value
2019-05-18T00:01:19.105Z,15.11
2019-05-18T00:02:54.614Z,15.13
2019-05-18T00:04:31.189Z,15.11
2019-05-18T00:06:08.396Z,15.10
2019-05-18T00:07:44.941Z,15.10
2019-05-18T00:09:23.689Z,15.09
2019-05-18T00:11:01.571Z,15.09
2019-05-18T00:12:37.441Z,15.07
2019-05-18T00:14:13.726Z,15.07
2019-05-18T00:15:52.500Z,15.05
2019-05-18T00:17:33.667Z,15.04
2019-05-18T00:19:15.399Z,15.04
2019-05-18T00:20:55.879Z,15.03
2019-05-18T00:22:31.712Z,15.01
2019-05-18T00:24:09.109Z,14.99
2019-05-18T00:25:44.663Z,14.99
2019-05-18T00:27:20.874Z,14.97
2019-05-18T00:28:56.486Z,14.98
2019-05-18T00:30:34.566Z,14.96
2019-05-18T00:32:10.512Z,14.96
2019-05-18T00:33:46.795Z,14.95
2019-05-18T00:35:24.555Z,14.95
2019-05-18T00:37:00.898Z,14.94
2019-05-18T00:38:37.889Z,14.92
2019-05-18T00:40:14.377Z,14.91
2019-05-18T00:41:49.944Z,14.89
2019-05-18T00:43:26.196Z,14.89
2019-05-18T00:45:01.791Z,14.87
2019-05-18T00:46:39.008Z,14.86
2019-05-18T00:48:14.856Z,14.85
2019-05-18T00:49:51.114Z,14.84
2019-05-18T00:51:28.251Z,14.83
2019-05-18T00:53:04.492Z,14.81
2019-05-18T00:54:40.015Z,14.80
2019-05-18T00:56:16.282Z,14.79
2019-05-18T00:57:51.869Z,14.79
2019-05-18T00:59:29.594Z,14.78
2019-05-18T01:01:05.648Z,14.77
2019-05-18T01:02:46.615Z,14.76
2019-05-18T01:04:22.389Z,14.73
2019-05-18T01:05:58.725Z,14.72
2019-05-18T01:07:34.252Z,14.71
2019-05-18T01:09:13.111Z,14.71
2019-05-18T01:10:50.247Z,14.70
2019-05-18T01:12:26.502Z,14.68
2019-05-18T01:14:02.015Z,14.65
2019-05-18T01:15:38.541Z,14.61
2019-05-18T01:17:14.163Z,14.59
2019-05-18T01:18:50.413Z,14.56
2019-05-18T01:20:25.952Z,14.53
2019-05-18T01:22:02.210Z,14.52
2019-05-18T01:23:39.473Z,14.50
2019-05-18T01:25:16.510Z,14.49
2019-05-18T01:26:52.009Z,14.46
2019-05-18T01:28:28.290Z,14.46
2019-05-18T01:30:05.831Z,14.44
2019-05-18T01:31:43.133Z,14.45
2019-05-18T01:33:18.791Z,14.44
2019-05-18T01:34:55.052Z,14.43
2019-05-18T01:36:30.678Z,14.41
2019-05-18T01:38:07.251Z,14.41
2019-05-18T01:39:42.791Z,14.39
2019-05-18T01:41:20.035Z,14.36
2019-05-18T01:42:55.594Z,14.35
2019-05-18T01:44:31.838Z,14.33
2019-05-18T01:46:07.639Z,14.33
2019-05-18T01:47:43.916Z,14.31
2019-05-18T01:49:19.420Z,14.29
2019-05-18T01:50:55.692Z,14.26
2019-05-18T01:52:31.211Z,14.26
2019-05-18T01:54:07.794Z,14.24
2019-05-18T01:55:43.314Z,14.21
2019-05-18T01:57:19.555Z,14.19
2019-05-18T01:58:55.073Z,14.18
2019-05-18T02:00:31.335Z,14.16
2019-05-18T02:02:06.863Z,14.13
2019-05-18T02:03:43.400Z,14.11
2019-05-18T02:05:18.932Z,14.06
2019-05-18T02:06:55.186Z,14.03
2019-05-18T02:08:30.724Z,14.00
2019-05-18T02:10:08.385Z,13.98
2019-05-18T02:11:43.953Z,13.96
2019-05-18T02:13:20.231Z,13.93
2019-05-18T02:14:55.736Z,13.90
2019-05-18T02:16:32.008Z,13.88
2019-05-18T02:18:07.529Z,13.85
2019-05-18T02:19:43.791Z,13.83
2019-05-18T02:21:19.348Z,13.80
2019-05-18T02:22:55.631Z,13.78
2019-05-18T02:24:31.188Z,13.77
2019-05-18T02:26:07.461Z,13.75
2019-05-18T02:27:42.981Z,13.73
2019-05-18T02:29:19.256Z,13.71
2019-05-18T02:30:54.785Z,13.70
2019-05-18T02:32:31.410Z,13.68
2019-05-18T02:34:06.936Z,13.66
2019-05-18T02:35:43.246Z,13.65
2019-05-18T02:37:19.146Z,13.65
2019-05-18T02:38:55.660Z,13.63
2019-05-18T02:40:31.186Z,13.62
2019-05-18T02:42:07.447Z,13.61
2019-05-18T02:43:43.030Z,13.61
2019-05-18T02:45:19.432Z,13.59
2019-05-18T02:46:54.951Z,13.58
2019-05-18T02:48:47.876Z,13.59
2019-05-18T02:50:10.029Z,13.58
2019-05-18T02:51:46.293Z,13.56
2019-05-18T02:53:21.818Z,13.55
2019-05-18T02:54:58.119Z,13.54
2019-05-18T02:56:33.659Z,13.54
2019-05-18T02:58:09.982Z,13.53
2019-05-18T02:59:45.503Z,13.53
2019-05-18T03:01:21.768Z,13.51
2019-05-18T03:02:57.284Z,13.50
2019-05-18T03:04:33.535Z,13.49
2019-05-18T03:06:09.112Z,13.47
2019-05-18T03:07:45.677Z,13.47
2019-05-18T03:09:21.219Z,13.44
2019-05-18T03:10:58.112Z,13.43
2019-05-18T03:12:33.626Z,13.42
2019-05-18T03:14:09.902Z,13.42
2019-05-18T03:15:45.449Z,13.39
2019-05-18T03:17:21.699Z,13.37
2019-05-18T03:19:07.479Z,13.35
2019-05-18T03:20:35.429Z,13.35
2019-05-18T03:22:11.516Z,13.35
2019-05-18T03:23:48.093Z,13.33
2019-05-18T03:25:23.644Z,13.34
2019-05-18T03:27:01.157Z,13.33
2019-05-18T03:28:36.658Z,13.31
2019-05-18T03:30:13.253Z,13.31
2019-05-18T03:31:48.805Z,13.31
2019-05-18T03:33:29.511Z,13.31
2019-05-18T03:35:02.350Z,13.30
2019-05-18T03:36:38.627Z,13.28
2019-05-18T03:38:14.161Z,13.27
2019-05-18T03:39:50.410Z,13.26
2019-05-18T03:41:25.971Z,13.28
2019-05-18T03:43:03.459Z,13.27
2019-05-18T03:44:38.977Z,13.29
2019-05-18T03:46:15.246Z,13.34
2019-05-18T03:47:50.798Z,13.36
2019-05-18T03:49:27.826Z,13.40
2019-05-18T03:51:03.673Z,13.43
2019-05-18T03:52:39.892Z,13.49
2019-05-18T03:54:15.396Z,13.53
2019-05-18T03:55:51.664Z,13.58
2019-05-18T03:57:27.511Z,13.63
2019-05-18T03:59:03.777Z,13.71
2019-05-18T04:00:39.295Z,13.76
2019-05-18T04:02:15.573Z,13.83
2019-05-18T04:03:51.098Z,13.89
2019-05-18T04:05:27.358Z,13.96
2019-05-18T04:07:02.905Z,14.02
2019-05-18T04:08:39.462Z,14.08
2019-05-18T04:10:15.319Z,14.12
2019-05-18T04:11:51.608Z,14.18
2019-05-18T04:13:27.115Z,14.23
2019-05-18T04:15:03.386Z,14.29
2019-05-18T04:16:39.888Z,14.34
2019-05-18T04:18:16.128Z,14.41
2019-05-18T04:19:51.654Z,14.51
2019-05-18T04:21:27.919Z,14.62
2019-05-18T04:23:03.727Z,14.72
2019-05-18T04:24:39.979Z,14.84
2019-05-18T04:26:15.528Z,14.94
2019-05-18T04:27:51.787Z,15.06
2019-05-18T04:29:27.306Z,15.18
2019-05-18T04:31:03.557Z,15.29
2019-05-18T04:32:39.116Z,15.39
2019-05-18T04:34:15.883Z,15.52
2019-05-18T04:35:51.454Z,15.65
2019-05-18T04:37:27.993Z,15.78
2019-05-18T04:39:05.331Z,15.90
2019-05-18T04:40:41.590Z,16.02
2019-05-18T04:42:17.117Z,16.15
2019-05-18T04:43:53.340Z,16.30
2019-05-18T04:45:29.037Z,16.41
2019-05-18T04:47:05.313Z,16.54
2019-05-18T04:48:40.860Z,16.67
2019-05-18T04:50:17.774Z,16.81
2019-05-18T04:51:53.337Z,16.95
2019-05-18T04:53:29.616Z,17.10
2019-05-18T04:55:06.425Z,17.28
2019-05-18T04:56:43.304Z,17.46
2019-05-18T04:58:18.906Z,17.62
2019-05-18T04:59:55.469Z,17.75
2019-05-18T05:01:32.152Z,17.88
2019-05-18T05:03:08.610Z,18.00
2019-05-18T05:04:44.137Z,18.07
2019-05-18T05:06:20.407Z,18.13
2019-05-18T05:07:57.011Z,18.21
2019-05-18T05:09:33.249Z,18.26
2019-05-18T05:11:08.755Z,18.30
2019-05-18T05:12:45.021Z,18.33
2019-05-18T05:14:20.689Z,18.33
2019-05-18T05:15:58.559Z,18.34
2019-05-18T05:17:34.117Z,18.34
2019-05-18T05:19:10.372Z,18.34
2019-05-18T05:20:47.163Z,18.34
2019-05-18T05:22:23.718Z,18.34
2019-05-18T05:23:59.223Z,18.36
2019-05-18T05:25:35.484Z,18.38
2019-05-18T05:27:11.013Z,18.39
2019-05-18T05:28:47.274Z,18.38
2019-05-18T05:30:22.800Z,18.38
2019-05-18T05:31:59.049Z,18.37
2019-05-18T05:33:34.572Z,18.37
2019-05-18T05:35:10.968Z,18.35
2019-05-18T05:36:47.540Z,18.30
2019-05-18T05:38:24.150Z,18.24
2019-05-18T05:39:59.657Z,18.18
2019-05-18T05:41:36.675Z,18.14
2019-05-18T05:43:12.213Z,18.07
2019-05-18T05:44:48.473Z,18.04
2019-05-18T05:46:23.995Z,17.97
2019-05-18T05:48:00.263Z,17.92
2019-05-18T05:49:35.773Z,17.86
2019-05-18T05:51:12.321Z,17.81
2019-05-18T05:52:47.882Z,17.75
2019-05-18T05:54:24.101Z,17.73
2019-05-18T05:56:00.737Z,17.72
2019-05-18T05:57:36.985Z,17.71
2019-05-18T05:59:12.521Z,17.71
2019-05-18T06:00:48.780Z,17.72
2019-05-18T06:02:24.290Z,17.74
2019-05-18T06:04:00.554Z,17.75
2019-05-18T06:05:37.041Z,17.77
2019-05-18T06:07:13.383Z,17.79
2019-05-18T06:08:48.935Z,17.81
2019-05-18T06:10:25.195Z,17.83
2019-05-18T06:12:01.142Z,17.83
2019-05-18T06:13:37.453Z,17.88
2019-05-18T06:15:13.265Z,17.93
2019-05-18T06:16:49.519Z,18.01
2019-05-18T06:18:25.040Z,18.12
2019-05-18T06:20:01.328Z,18.24
2019-05-18T06:21:36.840Z,18.35
2019-05-18T06:23:13.447Z,18.42
2019-05-18T06:24:50.767Z,18.49
2019-05-18T06:26:27.038Z,18.62
2019-05-18T06:28:02.589Z,18.76
2019-05-18T06:29:39.987Z,18.93
2019-05-18T06:31:15.535Z,19.12
2019-05-18T06:32:51.811Z,19.32
2019-05-18T06:34:27.393Z,19.52
2019-05-18T06:36:03.631Z,19.66
2019-05-18T06:37:39.132Z,19.81
2019-05-18T06:39:15.428Z,19.94
2019-05-18T06:40:50.914Z,20.07
2019-05-18T06:42:27.413Z,20.19
2019-05-18T06:44:03.372Z,20.30
2019-05-18T06:45:40.087Z,20.42
2019-05-18T06:47:15.721Z,20.56
2019-05-18T06:48:52.007Z,20.63
2019-05-18T06:50:33.484Z,20.72
2019-05-18T06:52:09.794Z,20.80
2019-05-18T06:53:45.316Z,20.84
2019-05-18T06:55:21.618Z,20.90
2019-05-18T06:56:58.281Z,20.97
2019-05-18T06:58:35.802Z,21.07
2019-05-18T07:00:16.005Z,21.17
2019-05-18T07:01:55.288Z,21.28
2019-05-18T07:03:31.475Z,21.38
2019-05-18T07:05:08.927Z,21.46
2019-05-18T07:06:44.706Z,21.55
2019-05-18T07:08:21.314Z,21.69
2019-05-18T07:09:56.866Z,21.78
2019-05-18T07:11:33.174Z,21.85
2019-05-18T07:13:08.702Z,21.89
2019-05-18T07:14:45.240Z,21.94
2019-05-18T07:16:21.106Z,21.92
2019-05-18T07:17:58.761Z,21.94
2019-05-18T07:19:35.928Z,21.94
2019-05-18T07:21:21.819Z,21.95
2019-05-18T07:22:50.958Z,21.95
2019-05-18T07:24:27.255Z,21.92
2019-05-18T07:26:06.905Z,22.00
2019-05-18T07:28:00.984Z,22.06
2019-05-18T07:29:37.275Z,22.14
2019-05-18T07:31:13.184Z,22.21
2019-05-18T07:32:49.478Z,22.26
2019-05-18T07:34:26.669Z,22.34
2019-05-18T07:36:03.148Z,22.39
2019-05-18T07:37:39.439Z,22.50
2019-05-18T07:39:15.714Z,22.62
2019-05-18T07:40:51.269Z,22.65
2019-05-18T07:42:27.748Z,22.70
2019-05-18T07:44:03.273Z,22.77
2019-05-18T07:45:40.579Z,22.82
2019-05-18T07:47:16.343Z,22.87
2019-05-18T07:48:52.596Z,22.94
2019-05-18T07:50:28.133Z,23.08
2019-05-18T07:52:04.376Z,23.19
2019-05-18T07:53:40.163Z,23.24
2019-05-18T07:55:16.526Z,23.33
2019-05-18T07:56:52.053Z,23.41
2019-05-18T07:58:28.359Z,23.45
2019-05-18T08:00:07.745Z,23.46
2019-05-18T08:01:44.245Z,23.53
2019-05-18T08:03:19.759Z,23.58
2019-05-18T08:04:56.035Z,23.63
2019-05-18T08:06:31.566Z,23.71
2019-05-18T08:08:07.799Z,23.85
2019-05-18T08:09:44.298Z,23.96
2019-05-18T08:11:20.557Z,24.11
2019-05-18T08:12:56.083Z,24.27
2019-05-18T08:14:32.340Z,24.38
2019-05-18T08:16:07.864Z,24.40
2019-05-18T08:17:44.107Z,24.44
2019-05-18T08:19:19.678Z,24.46
2019-05-18T08:20:55.924Z,24.46
2019-05-18T08:22:31.512Z,24.52
2019-05-18T08:24:07.778Z,24.62
2019-05-18T08:25:44.912Z,24.73
2019-05-18T08:27:21.175Z,24.82
2019-05-18T08:28:56.711Z,24.89
2019-05-18T08:30:32.969Z,24.95
2019-05-18T08:32:08.511Z,24.99
2019-05-18T08:33:45.166Z,25.03
2019-05-18T08:35:20.951Z,25.09
2019-05-18T08:36:57.218Z,25.12
2019-05-18T08:38:32.743Z,25.15
2019-05-18T08:40:10.993Z,25.23
2019-05-18T08:41:48.733Z,25.38
2019-05-18T08:43:24.465Z,25.52
2019-05-18T08:45:00.016Z,25.64
2019-05-18T08:46:36.262Z,25.75
2019-05-18T08:48:13.237Z,25.85
2019-05-18T08:49:49.983Z,25.94
2019-05-18T08:51:25.503Z,26.08
2019-05-18T08:53:01.750Z,26.24
2019-05-18T08:54:37.549Z,26.34
2019-05-18T08:56:14.015Z,26.42
2019-05-18T08:57:49.531Z,26.58
2019-05-18T08:59:25.817Z,26.76
2019-05-18T09:01:01.336Z,26.81
2019-05-18T09:02:37.586Z,26.81
2019-05-18T09:04:14.122Z,26.87
2019-05-18T09:05:50.395Z,26.91
2019-05-18T09:07:25.914Z,26.97
2019-05-18T09:09:02.153Z,26.94
2019-05-18T09:10:37.863Z,26.98
2019-05-18T09:12:14.900Z,27.01
2019-05-18T09:13:50.407Z,27.07
2019-05-18T09:15:26.981Z,27.10
2019-05-18T09:17:02.522Z,27.13
2019-05-18T09:18:39.260Z,27.20
2019-05-18T09:20:21.140Z,27.18
2019-05-18T09:22:04.261Z,27.18
2019-05-18T09:23:43.205Z,27.21
2019-05-18T09:25:18.811Z,27.31
2019-05-18T09:26:55.082Z,27.45
2019-05-18T09:28:30.601Z,27.56
2019-05-18T09:30:09.947Z,27.60
2019-05-18T09:31:45.451Z,27.63
2019-05-18T09:33:21.725Z,27.68
2019-05-18T09:34:57.614Z,27.71
2019-05-18T09:36:33.882Z,27.76
2019-05-18T09:38:09.396Z,27.77
2019-05-18T09:39:46.302Z,27.87
2019-05-18T09:41:22.909Z,27.98
2019-05-18T09:43:01.841Z,27.93
2019-05-18T09:44:37.409Z,28.03
2019-05-18T09:46:13.643Z,28.03
2019-05-18T09:47:49.190Z,28.00
2019-05-18T09:49:25.425Z,28.03
2019-05-18T09:51:00.946Z,28.08
2019-05-18T09:52:45.077Z,28.13
2019-05-18T09:54:14.833Z,28.27
2019-05-18T09:55:51.106Z,28.45
2019-05-18T09:57:26.634Z,28.55
2019-05-18T09:59:02.884Z,28.56
2019-05-18T10:00:39.261Z,28.61
2019-05-18T10:02:17.542Z,28.51
2019-05-18T10:03:53.009Z,28.45
2019-05-18T10:05:29.660Z,28.41
2019-05-18T10:07:07.045Z,28.31
2019-05-18T10:08:44.622Z,28.30
2019-05-18T10:10:23.548Z,28.34
2019-05-18T10:12:02.774Z,28.47
2019-05-18T10:13:41.459Z,28.65
2019-05-18T10:15:18.009Z,28.73
2019-05-18T10:16:53.538Z,28.88
2019-05-18T10:18:31.406Z,29.03
2019-05-18T10:20:08.738Z,29.07
2019-05-18T10:21:46.087Z,29.19
2019-05-18T10:23:21.613Z,29.31
2019-05-18T10:24:58.853Z,29.39
2019-05-18T10:26:34.373Z,29.48
2019-05-18T10:28:10.944Z,29.58
2019-05-18T10:29:47.711Z,29.75
2019-05-18T10:31:27.085Z,29.80
2019-05-18T10:33:02.949Z,29.86
2019-05-18T10:34:39.242Z,29.89
2019-05-18T10:36:14.812Z,30.02
2019-05-18T10:37:51.311Z,30.11
2019-05-18T10:39:26.915Z,30.26
2019-05-18T10:41:03.200Z,30.29
2019-05-18T10:42:38.712Z,30.38
2019-05-18T10:44:14.982Z,30.31
2019-05-18T10:45:50.496Z,30.32
2019-05-18T10:47:26.757Z,30.26
2019-05-18T10:49:02.333Z,29.99
2019-05-18T10:50:38.632Z,29.57
2019-05-18T10:52:14.501Z,29.11
2019-05-18T10:53:51.000Z,28.64
2019-05-18T10:55:26.959Z,28.23
2019-05-18T10:57:03.262Z,27.84
2019-05-18T10:58:38.859Z,27.52
2019-05-18T11:00:16.736Z,27.26
2019-05-18T11:01:52.281Z,27.05
2019-05-18T11:03:28.537Z,26.82
2019-05-18T11:05:05.612Z,26.61
2019-05-18T11:06:42.136Z,26.44
2019-05-18T11:08:17.662Z,26.25
2019-05-18T11:09:54.053Z,26.09
2019-05-18T11:11:29.723Z,25.95
2019-05-18T11:13:08.768Z,25.84
2019-05-18T11:14:44.347Z,25.79
2019-05-18T11:16:21.087Z,25.81
2019-05-18T11:17:56.659Z,25.89
2019-05-18T11:19:33.983Z,25.96
2019-05-18T11:21:09.508Z,26.07
2019-05-18T11:22:45.763Z,26.16
2019-05-18T11:24:21.295Z,26.32
2019-05-18T11:25:57.550Z,26.48
2019-05-18T11:27:34.701Z,26.64
2019-05-18T11:29:10.978Z,26.78
2019-05-18T11:30:46.506Z,26.82
2019-05-18T11:32:24.336Z,26.84
2019-05-18T11:34:00.371Z,26.82
2019-05-18T11:35:37.572Z,26.71
2019-05-18T11:37:13.158Z,26.60
2019-05-18T11:38:49.533Z,26.48
2019-05-18T11:40:25.190Z,26.37
2019-05-18T11:42:01.466Z,26.25
2019-05-18T11:43:36.990Z,26.15
2019-05-18T11:45:17.026Z,26.06
2019-05-18T11:46:52.556Z,26.06
2019-05-18T11:48:29.088Z,26.06
2019-05-18T11:50:11.464Z,26.13
2019-05-18T11:51:47.662Z,26.23
2019-05-18T11:53:23.243Z,26.32
2019-05-18T11:54:59.512Z,26.34
2019-05-18T11:56:35.035Z,26.42
2019-05-18T11:58:11.291Z,26.51
2019-05-18T11:59:46.799Z,26.55
2019-05-18T12:01:23.366Z,26.60
2019-05-18T12:02:58.876Z,26.64
2019-05-18T12:04:35.437Z,26.72
2019-05-18T12:06:11.001Z,26.77
2019-05-18T12:07:47.274Z,26.79
2019-05-18T12:09:23.407Z,26.88
2019-05-18T12:10:59.644Z,26.93
2019-05-18T12:12:35.160Z,26.86
2019-05-18T12:14:12.323Z,26.65
2019-05-18T12:15:47.838Z,26.69
2019-05-18T12:17:24.776Z,26.71
2019-05-18T12:19:00.286Z,26.78
2019-05-18T12:20:36.552Z,26.91
2019-05-18T12:22:12.063Z,27.05
2019-05-18T12:23:48.367Z,27.21
2019-05-18T12:25:24.219Z,27.43
2019-05-18T12:27:00.470Z,27.61
2019-05-18T12:28:36.741Z,27.77
2019-05-18T12:30:14.312Z,27.89
2019-05-18T12:31:49.836Z,28.10
2019-05-18T12:33:26.125Z,28.31
2019-05-18T12:35:01.798Z,28.50
2019-05-18T12:36:38.330Z,28.66
2019-05-18T12:38:14.834Z,28.81
2019-05-18T12:39:54.676Z,28.87
2019-05-18T12:41:30.174Z,28.99
2019-05-18T12:43:06.444Z,29.15
2019-05-18T12:44:41.975Z,29.30
2019-05-18T12:46:18.267Z,29.42
2019-05-18T12:48:01.348Z,29.56
2019-05-18T12:49:37.621Z,29.70
2019-05-18T12:51:14.286Z,29.76
2019-05-18T12:52:51.538Z,29.80
2019-05-18T12:54:31.101Z,29.82
2019-05-18T12:56:05.907Z,29.86
2019-05-18T12:57:41.897Z,29.91
2019-05-18T12:59:18.187Z,29.81
2019-05-18T13:00:56.341Z,29.83
2019-05-18T13:02:32.587Z,29.81
2019-05-18T13:04:08.108Z,29.86
2019-05-18T13:05:48.981Z,29.92
2019-05-18T13:07:24.475Z,29.93
2019-05-18T13:09:06.033Z,29.83
2019-05-18T13:10:49.849Z,29.83
2019-05-18T13:12:49.908Z,29.87
2019-05-18T13:14:53.877Z,29.94
2019-05-18T13:16:43.663Z,29.94
2019-05-18T13:18:25.611Z,29.94
2019-05-18T13:20:01.938Z,29.98
2019-05-18T13:21:38.202Z,30.01
2019-05-18T13:23:13.735Z,30.01
2019-05-18T13:24:52.315Z,30.05
2019-05-18T13:26:27.597Z,30.11
2019-05-18T13:28:04.125Z,30.17
2019-05-18T13:29:39.951Z,30.19
2019-05-18T13:31:22.517Z,30.24
2019-05-18T13:33:10.043Z,30.22
2019-05-18T13:34:52.746Z,30.18
2019-05-18T13:36:30.498Z,30.15
2019-05-18T13:38:07.022Z,30.11
2019-05-18T13:39:43.284Z,30.17
2019-05-18T13:41:18.756Z,30.26
2019-05-18T13:42:55.117Z,30.28
2019-05-18T13:44:30.648Z,30.27
2019-05-18T13:46:07.180Z,30.22
2019-05-18T13:47:42.696Z,30.22
2019-05-18T13:49:18.983Z,30.10
2019-05-18T13:50:56.365Z,30.07
2019-05-18T13:52:33.595Z,30.03
2019-05-18T13:54:09.340Z,30.06
2019-05-18T13:55:55.670Z,30.09
2019-05-18T13:57:41.964Z,30.11
2019-05-18T14:01:34.161Z,29.97
2019-05-18T14:03:10.802Z,29.88
2019-05-18T14:04:57.688Z,29.78
2019-05-18T14:06:44.375Z,29.60
2019-05-18T14:08:26.105Z,29.44
2019-05-18T14:10:08.566Z,29.23
2019-05-18T14:11:48.860Z,29.00
2019-05-18T14:13:29.636Z,28.76
2019-05-18T14:15:11.686Z,28.54
2019-05-18T14:16:48.223Z,28.35
2019-05-18T14:18:24.495Z,28.13
2019-05-18T14:20:05.921Z,27.95
2019-05-18T14:21:42.138Z,27.79
2019-05-18T14:23:21.140Z,27.62
2019-05-18T14:24:57.053Z,27.49
2019-05-18T14:26:35.702Z,27.33
2019-05-18T14:28:14.498Z,27.17
2019-05-18T14:30:02.348Z,27.06
2019-05-18T14:31:59.861Z,26.93
2019-05-18T14:34:02.905Z,26.81
2019-05-18T14:36:03.847Z,26.67
2019-05-18T14:38:04.175Z,26.56
2019-05-18T14:40:03.685Z,26.48
2019-05-18T14:41:47.027Z,26.41
2019-05-18T14:46:28.386Z,26.35
2019-05-18T14:48:25.149Z,26.29
2019-05-18T14:50:34.862Z,26.23
2019-05-18T14:52:24.083Z,26.19
2019-05-18T14:54:25.907Z,26.14
2019-05-18T14:56:16.658Z,26.08
2019-05-18T14:57:57.122Z,26.05
2019-05-18T14:59:37.229Z,26.02
2019-05-18T15:01:13.037Z,26.05
2019-05-18T15:02:53.153Z,26.04
2019-05-18T15:04:30.085Z,26.03
2019-05-18T15:06:11.933Z,26.02
2019-05-18T15:07:49.455Z,26.03
2019-05-18T15:09:54.158Z,26.04
2019-05-18T15:12:07.868Z,26.01
2019-05-18T15:14:19.889Z,26.00
2019-05-18T15:16:19.938Z,25.93
2019-05-18T15:24:20.164Z,25.80
2019-05-18T15:24:56.601Z,25.86
2019-05-18T15:27:36.389Z,25.67
2019-05-18T15:32:25.718Z,25.66
2019-05-18T15:34:13.093Z,25.63
2019-05-18T15:38:37.187Z,25.59
2019-05-18T15:40:26.496Z,25.54
2019-05-18T15:42:22.746Z,25.55
2019-05-18T15:44:18.725Z,25.54
2019-05-18T15:46:05.657Z,25.56
2019-05-18T15:47:48.455Z,25.59
2019-05-18T15:51:46.257Z,25.60
2019-05-18T15:53:33.177Z,25.55
2019-05-18T15:55:22.188Z,25.58
2019-05-18T15:57:08.339Z,25.58
2019-05-18T15:58:49.007Z,25.58
2019-05-18T16:03:03.801Z,25.59
2019-05-18T16:04:50.628Z,25.52
2019-05-18T16:08:28.957Z,25.52
2019-05-18T16:10:27.076Z,25.52
2019-05-18T16:12:10.091Z,25.53
2019-05-18T16:16:25.500Z,25.53
2019-05-18T16:19:04.719Z,25.50
2019-05-18T16:20:53.972Z,25.48
2019-05-18T16:22:24.614Z,25.45
2019-05-18T16:24:10.785Z,25.42
2019-05-18T16:26:20.819Z,25.42
2019-05-18T16:27:47.138Z,25.43
2019-05-18T16:29:24.264Z,25.42
2019-05-18T16:31:02.270Z,25.46
2019-05-18T16:32:50.935Z,25.47
2019-05-18T16:34:25.736Z,25.50
2019-05-18T16:36:02.814Z,25.51
2019-05-18T16:37:40.481Z,25.50
2019-05-18T16:39:15.985Z,25.50
2019-05-18T16:41:05.533Z,25.49
2019-05-18T16:42:46.558Z,25.49
2019-05-18T16:44:24.541Z,25.45
2019-05-18T16:46:08.066Z,25.45
2019-05-18T16:47:45.579Z,25.41
2019-05-18T16:49:25.437Z,25.39
2019-05-18T16:51:12.698Z,25.40
2019-05-18T16:52:54.454Z,25.39
2019-05-18T16:54:37.707Z,25.36
2019-05-18T16:56:46.775Z,25.34
2019-05-18T16:58:28.718Z,25.32
2019-05-18T17:00:10.612Z,25.25
2019-05-18T17:02:11.747Z,25.23
2019-05-18T17:04:11.698Z,25.23
2019-05-18T17:06:07.989Z,25.20
2019-05-18T17:08:09.334Z,25.13
2019-05-18T17:10:02.751Z,25.09
2019-05-18T17:11:56.064Z,25.06
2019-05-18T17:13:48.283Z,25.06
2019-05-18T17:15:24.594Z,25.06
2019-05-18T17:17:12.229Z,25.04
2019-05-18T17:18:47.309Z,25.04
2019-05-18T17:21:00.795Z,25.03
2019-05-18T17:22:35.240Z,25.05
2019-05-18T17:24:15.032Z,25.03
2019-05-18T17:25:58.503Z,25.03
2019-05-18T17:27:35.277Z,25.04
2019-05-18T17:29:10.813Z,25.03
2019-05-18T17:31:08.751Z,25.04
2019-05-18T17:32:47.513Z,25.03
2019-05-18T17:34:27.577Z,24.99
2019-05-18T17:36:11.274Z,24.98
2019-05-18T17:37:47.032Z,24.97
2019-05-18T17:39:23.388Z,24.96
2019-05-18T17:40:58.903Z,24.96
2019-05-18T17:42:35.204Z,24.96
2019-05-18T17:44:11.258Z,24.96
2019-05-18T17:45:47.543Z,24.94
2019-05-18T17:47:23.087Z,24.94
2019-05-18T17:48:59.353Z,24.93
2019-05-18T17:50:40.016Z,24.93
2019-05-18T17:52:16.277Z,24.92
2019-05-18T17:53:51.777Z,24.91
2019-05-18T17:55:28.321Z,24.89
2019-05-18T17:57:08.450Z,24.89
2019-05-18T17:58:43.156Z,24.88
2019-05-18T18:00:21.228Z,24.87
2019-05-18T18:01:57.761Z,24.85
2019-05-18T18:03:33.301Z,24.84
2019-05-18T18:05:10.418Z,24.83
2019-05-18T18:06:46.017Z,24.82
2019-05-18T18:08:22.313Z,24.80
2019-05-18T18:09:57.842Z,24.80
2019-05-18T18:11:34.168Z,24.77
2019-05-18T18:13:09.757Z,24.76
2019-05-18T18:14:46.075Z,24.74
2019-05-18T18:16:23.296Z,24.73
2019-05-18T18:18:03.341Z,24.70
2019-05-18T18:19:47.349Z,24.68
2019-05-18T18:21:38.236Z,24.63
2019-05-18T18:23:15.346Z,24.59
2019-05-18T18:25:04.128Z,24.54
2019-05-18T18:26:39.893Z,24.52
2019-05-18T18:28:27.986Z,24.50
2019-05-18T18:30:07.862Z,24.48
2019-05-18T18:31:44.884Z,24.46
2019-05-18T18:33:23.407Z,24.43
2019-05-18T18:34:59.954Z,24.41
2019-05-18T18:36:35.559Z,24.38
2019-05-18T18:38:11.860Z,24.35
2019-05-18T18:39:47.445Z,24.31
2019-05-18T18:41:23.827Z,24.30
2019-05-18T18:42:59.414Z,24.28
2019-05-18T18:44:35.707Z,24.25
2019-05-18T18:46:11.255Z,24.22
2019-05-18T18:47:47.534Z,24.19
2019-05-18T18:49:23.072Z,24.17
2019-05-18T18:50:59.350Z,24.13
2019-05-18T18:52:34.911Z,24.10
2019-05-18T18:54:12.900Z,24.08
2019-05-18T18:55:48.515Z,24.03
2019-05-18T18:57:39.738Z,23.99
2019-05-18T18:59:02.272Z,23.96
2019-05-18T19:00:38.781Z,23.90
2019-05-18T19:02:15.197Z,23.87
2019-05-18T19:03:51.469Z,23.83
2019-05-18T19:05:27.249Z,23.78
2019-05-18T19:07:03.602Z,23.75
2019-05-18T19:08:39.155Z,23.70
2019-05-18T19:10:16.719Z,23.67
2019-05-18T19:11:52.562Z,23.64
2019-05-18T19:13:28.849Z,23.58
2019-05-18T19:15:07.677Z,23.53
2019-05-18T19:16:43.987Z,23.50
2019-05-18T19:18:19.536Z,23.45
2019-05-18T19:19:55.796Z,23.40
2019-05-18T19:21:31.371Z,23.36
2019-05-18T19:23:07.679Z,23.30
2019-05-18T19:24:45.961Z,23.26
2019-05-18T19:26:22.611Z,23.22
2019-05-18T19:28:01.329Z,23.18
2019-05-18T19:29:39.215Z,23.13
2019-05-18T19:31:14.890Z,23.09
2019-05-18T19:32:51.271Z,23.04
2019-05-18T19:34:26.908Z,22.99
2019-05-18T19:36:03.257Z,22.96
2019-05-18T19:37:40.571Z,22.91
2019-05-18T19:39:17.753Z,22.87
2019-05-18T19:40:57.936Z,22.82
2019-05-18T19:42:34.263Z,22.78
2019-05-18T19:44:09.831Z,22.71
2019-05-18T19:45:46.120Z,22.67
2019-05-18T19:47:21.933Z,22.61
2019-05-18T19:48:58.290Z,22.56
2019-05-18T19:50:54.095Z,22.51
2019-05-18T19:52:29.785Z,22.44
2019-05-18T19:54:06.168Z,22.35
2019-05-18T19:55:50.613Z,22.30
2019-05-18T19:57:28.573Z,22.25
2019-05-18T19:59:04.565Z,22.18
2019-05-18T20:00:48.455Z,22.13
2019-05-18T20:02:24.876Z,22.08
2019-05-18T20:04:02.167Z,22.03
2019-05-18T20:05:39.622Z,21.98
2019-05-18T20:07:15.149Z,21.95
2019-05-18T20:08:51.456Z,21.91
2019-05-18T20:10:26.969Z,21.87
2019-05-18T20:12:03.246Z,21.82
2019-05-18T20:13:38.797Z,21.80
2019-05-18T20:16:49.495Z,21.71
2019-05-18T20:18:25.751Z,21.68
2019-05-18T20:20:01.293Z,21.64
2019-05-18T20:21:37.567Z,21.61
2019-05-18T20:23:13.281Z,21.59
2019-05-18T20:24:50.628Z,21.56
2019-05-18T20:26:26.201Z,21.52
2019-05-18T20:28:02.479Z,21.52
2019-05-18T20:29:38.271Z,21.48
2019-05-18T20:31:18.356Z,21.45
2019-05-18T20:32:55.259Z,21.43
2019-05-18T20:34:31.722Z,21.39
2019-05-18T20:36:13.868Z,21.36
2019-05-18T20:37:50.607Z,21.34
2019-05-18T20:39:27.010Z,21.29
2019-05-18T20:41:07.547Z,21.26
2019-05-18T20:42:43.944Z,21.23
2019-05-18T20:44:20.853Z,21.20
2019-05-18T20:46:00.806Z,21.18
2019-05-18T20:47:37.951Z,21.14
2019-05-18T20:49:14.333Z,21.10
2019-05-18T20:50:51.162Z,21.08
2019-05-18T20:52:28.409Z,21.06
2019-05-18T20:54:04.201Z,21.04
2019-05-18T20:55:49.869Z,21.01
2019-05-18T20:57:31.526Z,20.98
2019-05-18T20:59:09.844Z,20.93
2019-05-18T21:01:17.014Z,20.89
2019-05-18T21:02:57.690Z,20.87
2019-05-18T21:04:35.762Z,20.80
2019-05-18T21:06:11.471Z,20.78
2019-05-18T21:07:47.808Z,20.77
2019-05-18T21:09:23.389Z,20.74
2019-05-18T21:10:59.840Z,20.72
2019-05-18T21:12:35.409Z,20.69
2019-05-18T21:14:12.723Z,20.66
2019-05-18T21:15:53.568Z,20.65
2019-05-18T21:17:30.685Z,20.61
2019-05-18T21:19:07.883Z,20.59
2019-05-18T21:20:59.945Z,20.57
2019-05-18T21:22:37.174Z,20.54
2019-05-18T21:24:15.955Z,20.49
2019-05-18T21:26:02.907Z,20.46
2019-05-18T21:27:47.126Z,20.41
2019-05-18T21:29:23.562Z,20.36
2019-05-18T21:31:06.939Z,20.33
2019-05-18T21:32:50.652Z,20.31
2019-05-18T21:34:28.108Z,20.26